Castle Cary, United Kingdom
Current Conditions -  °F | °C
As of 8:50 PM on Thursday 23 Oct 2014 (Local Time) from EGDY Reporting Station
Broken Clouds Broken Clouds  
Wind Chill: 59°   Ceiling: 1900
Heat Index: 59°   Visibility: 6mi
Dew Point: 55°   Wind: 6mph
Humidity: 88%   Direction: 240°WSW
Pressure: 30.03"   Gusts: NA
Location:  51.09°N, 2.51°W
Report Text: EGDY 231950Z AUTO 24005KT 9999 FEW010/// BKN019/// BKN027/// 15/13 Q1017 RERA
Loading
Personal Weather Stations






























Interactive Weather Map
Tropical Storm Tracking
New forecast layout! Learn more

10-Day Weather Forecast

Advertisements
Track Severe Weather on mobile